createdAt,value
2022-08-25T00:00:48.660Z,5.40
2022-08-25T00:03:16.057Z,6.07
2022-08-25T00:05:43.975Z,6.85
2022-08-25T00:08:11.394Z,6.40
2022-08-25T00:10:39.074Z,7.05
2022-08-25T00:13:07.840Z,5.90
2022-08-25T00:15:35.340Z,4.70
2022-08-25T00:18:03.127Z,6.65
2022-08-25T00:20:33.261Z,5.43
2022-08-25T00:23:01.431Z,4.47
2022-08-25T00:25:28.777Z,7.10
2022-08-25T00:27:57.025Z,11.98
2022-08-25T00:30:25.722Z,9.45
2022-08-25T00:32:57.299Z,6.60
2022-08-25T00:35:25.173Z,9.75
2022-08-25T00:37:52.499Z,5.10
2022-08-25T00:40:20.237Z,8.55
2022-08-25T00:42:47.665Z,11.90
2022-08-25T00:45:15.026Z,4.95
2022-08-25T00:47:43.701Z,8.25
2022-08-25T00:50:12.207Z,7.28
2022-08-25T00:52:40.438Z,4.90
2022-08-25T00:55:09.908Z,8.45
2022-08-25T00:57:39.005Z,5.15
2022-08-25T01:00:07.434Z,4.13
2022-08-25T01:02:34.815Z,4.18
2022-08-25T01:05:03.514Z,4.22
2022-08-25T01:07:30.867Z,4.88
2022-08-25T01:09:58.204Z,7.78
2022-08-25T01:12:25.555Z,4.55
2022-08-25T01:14:52.895Z,6.93
2022-08-25T01:17:20.656Z,5.40
2022-08-25T01:19:48.014Z,5.38
2022-08-25T01:22:17.269Z,5.30
2022-08-25T01:24:45.994Z,5.82
2022-08-25T01:27:13.366Z,4.85
2022-08-25T01:29:40.695Z,9.20
2022-08-25T01:32:08.920Z,8.20
2022-08-25T01:34:37.077Z,4.05
2022-08-25T01:37:04.589Z,6.22
2022-08-25T01:39:36.483Z,4.88
2022-08-25T01:42:20.650Z,6.50
2022-08-25T01:44:48.184Z,4.68
2022-08-25T01:47:15.937Z,4.78
2022-08-25T01:49:43.293Z,6.70
2022-08-25T01:52:12.088Z,4.10
2022-08-25T01:54:40.790Z,7.25
2022-08-25T01:57:09.001Z,9.35
2022-08-25T01:59:36.350Z,6.88
2022-08-25T02:02:04.747Z,4.35
2022-08-25T02:04:33.040Z,5.78
2022-08-25T02:07:01.645Z,4.40
2022-08-25T02:09:29.033Z,3.88
2022-08-25T02:11:57.711Z,3.80
2022-08-25T02:14:25.057Z,6.95
2022-08-25T02:16:52.935Z,6.13
2022-08-25T02:19:20.390Z,9.10
2022-08-25T02:21:47.816Z,7.25
2022-08-25T02:24:15.170Z,5.97
2022-08-25T02:26:42.645Z,6.60
2022-08-25T02:29:11.364Z,4.47
2022-08-25T02:31:39.136Z,6.10
2022-08-25T02:34:06.591Z,9.05
2022-08-25T02:36:33.928Z,6.40
2022-08-25T02:39:01.521Z,4.57
2022-08-25T02:41:31.595Z,4.88
2022-08-25T02:43:59.395Z,7.47
2022-08-25T02:46:28.211Z,5.22
2022-08-25T02:48:55.725Z,4.47
2022-08-25T02:51:23.211Z,6.43
2022-08-25T02:53:50.692Z,4.95
2022-08-25T02:56:18.519Z,4.13
2022-08-25T02:58:45.971Z,4.05
2022-08-25T03:01:14.053Z,4.38
2022-08-25T03:03:43.730Z,7.95
2022-08-25T03:06:11.360Z,6.75
2022-08-25T03:08:38.693Z,5.90
2022-08-25T03:11:06.257Z,5.15
2022-08-25T03:13:33.599Z,8.70
2022-08-25T03:16:01.010Z,7.53
2022-08-25T03:18:30.283Z,6.50
2022-08-25T03:20:59.445Z,5.55
2022-08-25T03:23:26.849Z,4.82
2022-08-25T03:26:12.191Z,5.55
2022-08-25T03:28:39.540Z,8.00
2022-08-25T03:31:07.063Z,5.88
2022-08-25T03:33:34.389Z,5.30
2022-08-25T03:36:03.304Z,5.72
2022-08-25T03:38:30.684Z,4.55
2022-08-25T03:40:58.022Z,6.07
2022-08-25T03:43:25.375Z,5.45
2022-08-25T03:45:52.762Z,7.22
2022-08-25T03:48:20.116Z,5.13
2022-08-25T03:50:51.589Z,4.35
2022-08-25T03:53:20.715Z,5.47
2022-08-25T03:55:48.074Z,7.05
2022-08-25T03:58:15.424Z,3.50
2022-08-25T04:00:42.800Z,6.40
2022-08-25T04:03:10.179Z,6.07
2022-08-25T04:05:37.526Z,6.10
2022-08-25T04:08:05.077Z,4.55
2022-08-25T04:10:33.874Z,4.30
2022-08-25T04:13:01.769Z,4.60
2022-08-25T04:15:30.271Z,4.68
2022-08-25T04:17:58.732Z,7.30
2022-08-25T04:20:26.136Z,6.40
2022-08-25T04:22:53.511Z,5.00
2022-08-25T04:25:20.999Z,5.55
2022-08-25T04:27:49.803Z,4.55
2022-08-25T04:30:17.248Z,5.82
2022-08-25T04:32:44.569Z,6.85
2022-08-25T04:35:11.915Z,4.45
2022-08-25T04:37:39.262Z,6.57
2022-08-25T04:40:07.085Z,6.05
2022-08-25T04:42:34.826Z,5.88
2022-08-25T04:45:04.304Z,4.53
2022-08-25T04:47:31.648Z,4.45
2022-08-25T04:49:58.970Z,3.70
2022-08-25T04:52:26.346Z,9.48
2022-08-25T04:54:53.801Z,8.63
2022-08-25T04:57:21.131Z,5.68
2022-08-25T04:59:48.638Z,5.45
2022-08-25T05:02:17.363Z,7.45
2022-08-25T05:04:44.738Z,5.72
2022-08-25T05:07:12.111Z,6.15
2022-08-25T05:09:39.454Z,6.38
2022-08-25T05:12:07.037Z,3.53
2022-08-25T05:14:34.380Z,4.15
2022-08-25T05:17:02.126Z,4.55
2022-08-25T05:19:30.850Z,4.22
2022-08-25T05:21:58.368Z,10.10
2022-08-25T05:24:25.746Z,6.80
2022-08-25T05:26:53.085Z,6.38
2022-08-25T05:29:20.418Z,9.15
2022-08-25T05:31:50.651Z,6.45
2022-08-25T05:34:18.815Z,7.88
2022-08-25T05:36:47.639Z,7.47
2022-08-25T05:39:14.981Z,7.35
2022-08-25T05:41:42.348Z,4.95
2022-08-25T05:44:09.708Z,6.55
2022-08-25T05:46:37.086Z,7.70
2022-08-25T05:49:04.431Z,10.05
2022-08-25T05:51:31.750Z,4.63
2022-08-25T05:54:00.421Z,9.10
2022-08-25T05:56:27.763Z,6.95
2022-08-25T05:58:55.122Z,6.22
2022-08-25T06:01:40.975Z,6.80
2022-08-25T06:04:11.012Z,15.40
2022-08-25T06:06:38.368Z,9.70
2022-08-25T06:09:08.672Z,6.47
2022-08-25T06:11:37.206Z,3.92
2022-08-25T06:14:04.647Z,9.98
2022-08-25T06:16:32.048Z,6.10
2022-08-25T06:19:00.548Z,5.95
2022-08-25T06:21:27.874Z,5.97
2022-08-25T06:23:55.345Z,11.18
2022-08-25T06:26:24.302Z,6.50
2022-08-25T06:28:51.743Z,7.20
2022-08-25T06:31:19.217Z,4.57
2022-08-25T06:33:46.623Z,4.50
2022-08-25T06:36:13.999Z,6.40
2022-08-25T06:38:41.334Z,6.35
2022-08-25T06:41:10.414Z,8.25
2022-08-25T06:43:42.572Z,7.82
2022-08-25T06:46:12.549Z,7.15
2022-08-25T06:48:40.000Z,5.15
2022-08-25T06:51:08.077Z,6.97
2022-08-25T06:53:37.597Z,4.38
2022-08-25T06:56:06.716Z,7.97
2022-08-25T06:58:34.724Z,9.25
2022-08-25T07:01:13.499Z,8.95
2022-08-25T07:03:43.227Z,9.15
2022-08-25T07:06:10.577Z,5.90
2022-08-25T07:08:38.239Z,7.65
2022-08-25T07:11:05.884Z,9.23
2022-08-25T07:13:33.905Z,8.82
2022-08-25T07:16:01.374Z,7.03
2022-08-25T07:18:31.246Z,7.88
2022-08-25T07:20:58.787Z,9.68
2022-08-25T07:23:26.160Z,8.27
2022-08-25T07:25:53.978Z,5.03
2022-08-25T07:28:21.521Z,5.63
2022-08-25T07:30:51.607Z,7.20
2022-08-25T07:33:19.297Z,6.93
2022-08-25T07:35:47.100Z,5.70
2022-08-25T07:38:19.213Z,5.03
2022-08-25T07:40:54.399Z,4.72
2022-08-25T07:43:24.431Z,4.05
2022-08-25T07:45:51.769Z,5.85
2022-08-25T07:48:20.469Z,7.20
2022-08-25T07:50:49.292Z,7.25
2022-08-25T07:53:17.048Z,5.55
2022-08-25T07:55:45.151Z,6.45
2022-08-25T07:58:15.228Z,7.18
2022-08-25T08:00:42.579Z,6.03
2022-08-25T08:03:12.905Z,9.18
2022-08-25T08:05:52.678Z,6.30
2022-08-25T08:08:20.017Z,4.47
2022-08-25T08:11:04.010Z,6.35
2022-08-25T08:13:31.749Z,4.85
2022-08-25T08:15:59.112Z,5.72
2022-08-25T08:18:26.532Z,4.10
2022-08-25T08:20:55.220Z,7.65
2022-08-25T08:23:27.591Z,7.10
2022-08-25T08:25:55.311Z,4.80
2022-08-25T08:28:27.731Z,6.88
2022-08-25T08:30:55.114Z,7.50
2022-08-25T08:33:23.719Z,7.13
2022-08-25T08:35:57.517Z,4.53
2022-08-25T08:38:27.155Z,4.70
2022-08-25T08:41:21.715Z,4.65
2022-08-25T08:43:51.639Z,6.28
2022-08-25T08:46:19.043Z,7.32
2022-08-25T08:48:50.493Z,5.25
2022-08-25T08:51:23.076Z,6.53
2022-08-25T08:53:52.289Z,3.88
2022-08-25T08:56:20.414Z,8.73
2022-08-25T08:58:50.034Z,5.78
2022-08-25T09:01:19.291Z,6.63
2022-08-25T09:03:48.224Z,5.25
2022-08-25T09:06:25.831Z,5.10
2022-08-25T09:08:53.210Z,4.72
2022-08-25T09:11:22.818Z,4.15
2022-08-25T09:13:57.420Z,5.13
2022-08-25T09:16:45.311Z,6.10
2022-08-25T09:19:21.421Z,5.57
2022-08-25T09:21:53.234Z,8.32
2022-08-25T09:24:25.005Z,4.60
2022-08-25T09:26:54.384Z,5.03
2022-08-25T09:29:22.532Z,7.00
2022-08-25T09:31:52.694Z,4.43
2022-08-25T09:34:20.701Z,6.25
2022-08-25T09:36:50.740Z,5.90
2022-08-25T09:39:20.747Z,5.28
2022-08-25T09:41:51.453Z,7.47
2022-08-25T09:44:20.110Z,5.70
2022-08-25T09:47:02.676Z,6.78
2022-08-25T09:49:37.493Z,8.15
2022-08-25T09:52:22.096Z,6.60
2022-08-25T09:54:50.824Z,6.93
2022-08-25T09:57:31.276Z,8.27
2022-08-25T09:59:58.608Z,5.15
2022-08-25T10:02:26.637Z,8.50
2022-08-25T10:04:54.553Z,8.02
2022-08-25T10:07:22.646Z,6.80
2022-08-25T10:09:53.731Z,5.72
2022-08-25T10:12:22.165Z,6.18
2022-08-25T10:14:55.145Z,6.05
2022-08-25T10:17:27.764Z,5.88
2022-08-25T10:20:13.299Z,6.13
2022-08-25T10:22:40.900Z,5.93
2022-08-25T10:25:10.456Z,7.60
2022-08-25T10:27:38.983Z,4.63
2022-08-25T10:30:08.189Z,4.57
2022-08-25T10:32:40.145Z,9.32
2022-08-25T10:35:09.020Z,6.00
2022-08-25T10:37:40.781Z,9.23
2022-08-25T10:40:11.582Z,4.15
2022-08-25T10:42:40.174Z,6.07
2022-08-25T10:45:45.544Z,7.55
2022-08-25T10:48:22.528Z,8.57
2022-08-25T10:50:51.241Z,3.90
2022-08-25T10:53:22.264Z,8.40
2022-08-25T10:55:53.870Z,6.03
2022-08-25T10:58:23.455Z,5.63
2022-08-25T11:00:53.045Z,8.35
2022-08-25T11:03:25.608Z,5.72
2022-08-25T11:05:54.790Z,4.90
2022-08-25T11:08:23.606Z,6.90
2022-08-25T11:10:53.493Z,6.30
2022-08-25T11:13:23.771Z,4.47
2022-08-25T11:16:13.728Z,4.22
2022-08-25T11:18:43.590Z,4.00
2022-08-25T11:21:12.164Z,4.53
2022-08-25T11:23:40.848Z,3.90
2022-08-25T11:26:11.496Z,4.20
2022-08-25T11:28:43.455Z,5.03
2022-08-25T11:31:10.834Z,6.50
2022-08-25T11:33:39.285Z,8.40
2022-08-25T11:36:10.827Z,4.85
2022-08-25T11:38:41.625Z,4.57
2022-08-25T11:41:12.910Z,3.67
2022-08-25T11:43:44.554Z,3.15
2022-08-25T11:46:17.243Z,3.50
2022-08-25T11:48:45.977Z,4.18
2022-08-25T11:51:13.618Z,3.17
2022-08-25T11:53:42.182Z,3.83
2022-08-25T11:56:12.357Z,4.63
2022-08-25T11:58:45.746Z,6.68
2022-08-25T12:01:14.335Z,3.92
2022-08-25T12:03:53.084Z,3.50
2022-08-25T12:06:22.435Z,6.38
2022-08-25T12:08:51.042Z,7.03
2022-08-25T12:11:33.303Z,5.00
2022-08-25T12:14:13.123Z,3.45
2022-08-25T12:16:41.955Z,7.60
2022-08-25T12:19:28.577Z,7.63
2022-08-25T12:21:56.767Z,8.68
2022-08-25T12:24:26.095Z,7.80
2022-08-25T12:26:55.493Z,4.28
2022-08-25T12:29:27.753Z,6.22
2022-08-25T12:32:04.629Z,7.72
2022-08-25T12:34:37.406Z,5.20
2022-08-25T12:37:06.294Z,5.45
2022-08-25T12:39:34.656Z,5.57
2022-08-25T12:42:03.659Z,4.50
2022-08-25T12:44:38.947Z,5.53
2022-08-25T12:47:06.981Z,6.65
2022-08-25T12:49:34.726Z,5.20
2022-08-25T12:52:02.834Z,4.45
2022-08-25T12:54:37.634Z,3.33
2022-08-25T12:57:06.587Z,5.35
2022-08-25T12:59:34.548Z,5.50
2022-08-25T13:02:07.362Z,4.18
2022-08-25T13:04:49.809Z,5.45
2022-08-25T13:07:20.013Z,5.32
2022-08-25T13:09:58.627Z,5.10
2022-08-25T13:12:26.707Z,4.32
2022-08-25T13:14:56.375Z,5.15
2022-08-25T13:17:29.078Z,7.07
2022-08-25T13:20:11.436Z,3.47
2022-08-25T13:22:38.790Z,3.22
2022-08-25T13:25:06.701Z,4.00
2022-08-25T13:27:34.928Z,4.18
2022-08-25T13:30:03.708Z,4.93
2022-08-25T13:32:35.316Z,3.30
2022-08-25T13:35:09.910Z,3.80
2022-08-25T13:37:39.005Z,3.88
2022-08-25T13:40:10.955Z,4.68
2022-08-25T13:42:39.142Z,7.18
2022-08-25T13:45:10.679Z,6.55
2022-08-25T13:47:45.396Z,5.55
2022-08-25T13:50:23.360Z,4.50
2022-08-25T13:52:54.371Z,4.90
2022-08-25T13:55:22.521Z,7.22
2022-08-25T13:57:55.207Z,4.32
2022-08-25T14:00:32.425Z,4.20
2022-08-25T14:03:01.638Z,5.10
2022-08-25T14:05:38.153Z,5.60
2022-08-25T14:08:23.420Z,3.72
2022-08-25T14:10:53.996Z,3.00
2022-08-25T14:13:31.224Z,4.18
2022-08-25T14:16:07.376Z,4.05
2022-08-25T14:18:36.070Z,5.03
2022-08-25T14:21:07.809Z,2.90
2022-08-25T14:23:36.145Z,3.17
2022-08-25T14:26:03.492Z,6.55
2022-08-25T14:28:33.963Z,4.57
2022-08-25T14:31:02.107Z,3.05
2022-08-25T14:33:33.534Z,3.05
2022-08-25T14:36:04.808Z,3.40
2022-08-25T14:38:33.462Z,4.07
2022-08-25T14:41:00.993Z,5.32
2022-08-25T14:43:31.439Z,2.90
2022-08-25T14:45:59.822Z,5.60
2022-08-25T14:48:27.987Z,2.65
2022-08-25T14:50:55.674Z,3.85
2022-08-25T14:53:24.385Z,4.78
2022-08-25T14:55:54.066Z,3.88
2022-08-25T14:58:26.843Z,2.65
2022-08-25T15:00:54.316Z,3.35
2022-08-25T15:03:22.552Z,3.40
2022-08-25T15:05:49.892Z,3.00
2022-08-25T15:08:35.224Z,9.35
2022-08-25T15:11:07.695Z,3.40
2022-08-25T15:13:36.605Z,5.15
2022-08-25T15:16:04.348Z,6.15
2022-08-25T15:18:31.757Z,3.30
2022-08-25T15:21:00.389Z,4.68
2022-08-25T15:23:29.301Z,4.90
2022-08-25T15:25:56.709Z,6.68
2022-08-25T15:28:25.376Z,3.38
2022-08-25T15:30:54.003Z,4.38
2022-08-25T15:33:22.614Z,6.20
2022-08-25T15:35:50.045Z,3.90
2022-08-25T15:38:17.457Z,3.88
2022-08-25T15:40:44.798Z,7.10
2022-08-25T15:43:13.945Z,5.28
2022-08-25T15:45:42.670Z,4.47
2022-08-25T15:48:10.181Z,7.35
2022-08-25T15:50:38.742Z,6.38
2022-08-25T15:53:08.310Z,6.38
2022-08-25T15:55:38.665Z,4.75
2022-08-25T15:58:06.887Z,5.97
2022-08-25T16:00:36.197Z,4.80
2022-08-25T16:03:06.977Z,4.63
2022-08-25T16:05:35.730Z,5.07
2022-08-25T16:08:04.787Z,5.38
2022-08-25T16:10:33.814Z,5.60
2022-08-25T16:13:04.426Z,4.40
2022-08-25T16:15:32.830Z,3.42
2022-08-25T16:18:00.663Z,5.72
2022-08-25T16:20:30.020Z,4.75
2022-08-25T16:22:59.923Z,3.97
2022-08-25T16:25:27.535Z,3.35
2022-08-25T16:27:55.096Z,5.18
2022-08-25T16:30:24.766Z,3.35
2022-08-25T16:32:52.088Z,3.63
2022-08-25T16:35:19.582Z,5.68
2022-08-25T16:37:49.440Z,4.93
2022-08-25T16:40:18.841Z,5.00
2022-08-25T16:42:47.439Z,5.85
2022-08-25T16:45:14.809Z,7.28
2022-08-25T16:47:42.947Z,4.97
2022-08-25T16:50:10.757Z,6.85
2022-08-25T16:52:54.914Z,5.85
2022-08-25T16:55:23.842Z,6.10
2022-08-25T16:57:54.105Z,6.30
2022-08-25T17:00:23.203Z,5.70
2022-08-25T17:02:54.139Z,5.40
2022-08-25T17:05:21.875Z,4.28
2022-08-25T17:08:09.401Z,3.47
2022-08-25T17:10:40.205Z,4.13
2022-08-25T17:13:09.186Z,5.32
2022-08-25T17:15:39.676Z,4.10
2022-08-25T17:18:07.709Z,4.30
2022-08-25T17:20:38.727Z,4.25
2022-08-25T17:23:12.367Z,4.03
2022-08-25T17:25:42.964Z,6.28
2022-08-25T17:28:12.097Z,4.93
2022-08-25T17:30:39.846Z,4.13
2022-08-25T17:33:07.406Z,6.55
2022-08-25T17:35:38.748Z,5.95
2022-08-25T17:38:06.664Z,4.13
2022-08-25T17:40:34.431Z,4.43
2022-08-25T17:43:03.756Z,3.45
2022-08-25T17:45:31.133Z,4.32
2022-08-25T17:47:58.998Z,3.60
2022-08-25T17:50:26.595Z,5.40
2022-08-25T17:52:54.062Z,6.68
2022-08-25T17:55:22.912Z,4.53
2022-08-25T17:57:50.262Z,7.20
2022-08-25T18:00:19.348Z,6.13
2022-08-25T18:02:48.358Z,6.85
2022-08-25T18:05:15.789Z,4.50
2022-08-25T18:07:43.946Z,4.78
2022-08-25T18:10:11.648Z,3.67
2022-08-25T18:12:39.008Z,5.10
2022-08-25T18:15:06.745Z,6.28
2022-08-25T18:17:36.977Z,5.53
2022-08-25T18:20:08.055Z,6.18
2022-08-25T18:22:36.721Z,5.97
2022-08-25T18:25:06.521Z,5.32
2022-08-25T18:27:34.066Z,4.32
2022-08-25T18:30:01.422Z,6.35
2022-08-25T18:32:29.267Z,3.40
2022-08-25T18:34:57.987Z,5.90
2022-08-25T18:37:42.958Z,4.03
2022-08-25T18:40:25.867Z,4.78
2022-08-25T18:42:53.474Z,3.58
2022-08-25T18:45:23.017Z,5.00
2022-08-25T18:47:56.139Z,4.45
2022-08-25T18:50:25.511Z,5.60
2022-08-25T18:52:54.650Z,6.43
2022-08-25T18:55:22.799Z,5.22
2022-08-25T18:57:51.289Z,8.05
2022-08-25T19:00:19.496Z,6.07
2022-08-25T19:02:47.340Z,6.53
2022-08-25T19:05:14.990Z,4.78
2022-08-25T19:07:43.869Z,7.82
2022-08-25T19:10:11.252Z,5.35
2022-08-25T19:12:40.471Z,4.32
2022-08-25T19:15:08.758Z,5.82
2022-08-25T19:17:37.405Z,4.55
2022-08-25T19:20:05.409Z,7.85
2022-08-25T19:22:42.114Z,6.00
2022-08-25T19:25:11.286Z,6.00
2022-08-25T19:27:38.672Z,6.53
2022-08-25T19:30:06.293Z,4.82
2022-08-25T19:32:33.650Z,4.03
2022-08-25T19:35:02.182Z,6.32
2022-08-25T19:37:29.687Z,6.30
2022-08-25T19:39:57.926Z,5.53
2022-08-25T19:42:35.194Z,6.45
2022-08-25T19:45:04.991Z,6.18
2022-08-25T19:47:32.546Z,5.28
2022-08-25T19:49:59.869Z,5.97
2022-08-25T19:52:27.236Z,3.83
2022-08-25T19:54:56.100Z,4.90
2022-08-25T19:57:28.351Z,6.40
2022-08-25T20:00:12.647Z,5.32
2022-08-25T20:02:40.465Z,5.40
2022-08-25T20:05:08.014Z,6.38
2022-08-25T20:07:35.922Z,5.25
2022-08-25T20:10:03.926Z,8.40
2022-08-25T20:12:31.633Z,5.13
2022-08-25T20:14:59.225Z,5.07
2022-08-25T20:17:28.525Z,4.43
2022-08-25T20:19:56.895Z,4.18
2022-08-25T20:22:26.234Z,4.53
2022-08-25T20:24:56.148Z,6.95
2022-08-25T20:27:25.926Z,4.75
2022-08-25T20:29:53.467Z,4.40
2022-08-25T20:32:20.810Z,7.80
2022-08-25T20:34:50.339Z,5.65
2022-08-25T20:37:19.501Z,9.23
2022-08-25T20:39:46.930Z,7.82
2022-08-25T20:42:14.406Z,5.88
2022-08-25T20:44:42.498Z,10.38
2022-08-25T20:47:10.308Z,7.53
2022-08-25T20:49:39.188Z,8.38
2022-08-25T20:52:08.638Z,7.03
2022-08-25T20:54:35.973Z,7.68
2022-08-25T20:57:03.790Z,7.45
2022-08-25T20:59:35.808Z,7.00
2022-08-25T21:02:03.523Z,10.05
2022-08-25T21:04:31.581Z,5.72
2022-08-25T21:07:00.299Z,7.80
2022-08-25T21:09:29.289Z,6.75
2022-08-25T21:11:57.598Z,7.72
2022-08-25T21:14:25.397Z,12.65
2022-08-25T21:16:53.701Z,14.25
2022-08-25T21:19:26.289Z,8.15
2022-08-25T21:21:54.360Z,9.60
2022-08-25T21:24:28.806Z,8.55
2022-08-25T21:26:56.859Z,10.90
2022-08-25T21:29:24.657Z,5.88
2022-08-25T21:31:52.088Z,7.63
2022-08-25T21:34:19.619Z,10.35
2022-08-25T21:36:48.200Z,10.10
2022-08-25T21:39:15.603Z,12.77
2022-08-25T21:41:45.400Z,12.50
2022-08-25T21:44:12.874Z,12.40
2022-08-25T21:46:41.518Z,16.17
2022-08-25T21:49:12.881Z,19.40
2022-08-25T21:51:42.436Z,17.98
2022-08-25T21:54:10.571Z,18.38
2022-08-25T21:56:38.889Z,19.70
2022-08-25T21:59:07.874Z,20.13
2022-08-25T22:01:35.590Z,18.33
2022-08-25T22:04:03.725Z,21.55
2022-08-25T22:06:31.163Z,21.40
2022-08-25T22:08:58.803Z,25.65
2022-08-25T22:11:26.545Z,22.63
2022-08-25T22:13:54.443Z,22.95
2022-08-25T22:16:25.325Z,29.80
2022-08-25T22:18:52.854Z,32.42
2022-08-25T22:21:20.628Z,33.55
2022-08-25T22:23:47.950Z,36.13
2022-08-25T22:26:16.189Z,31.83
2022-08-25T22:28:49.397Z,30.35
2022-08-25T22:31:20.659Z,30.52
2022-08-25T22:33:49.745Z,35.22
2022-08-25T22:36:17.624Z,30.45
2022-08-25T22:38:45.998Z,29.20
2022-08-25T22:41:13.470Z,29.48
2022-08-25T22:43:47.045Z,28.90
2022-08-25T22:46:14.466Z,28.67
2022-08-25T22:48:44.439Z,27.30
2022-08-25T22:51:15.286Z,27.00
2022-08-25T22:53:42.781Z,27.08
2022-08-25T22:56:10.347Z,30.55
2022-08-25T22:58:37.784Z,25.95
2022-08-25T23:01:05.214Z,26.33
2022-08-25T23:03:32.628Z,29.40
2022-08-25T23:06:00.010Z,24.27
2022-08-25T23:08:38.205Z,35.85
2022-08-25T23:11:09.766Z,25.50
2022-08-25T23:13:37.291Z,24.52
2022-08-25T23:16:06.087Z,25.73
2022-08-25T23:18:33.484Z,27.48
2022-08-25T23:21:24.126Z,23.25
2022-08-25T23:23:53.199Z,24.42
2022-08-25T23:26:21.046Z,25.73
2022-08-25T23:28:48.705Z,25.95
2022-08-25T23:31:16.254Z,28.83
2022-08-25T23:33:43.650Z,27.42
2022-08-25T23:36:12.969Z,25.00
2022-08-25T23:38:40.410Z,25.10
2022-08-25T23:41:13.706Z,21.90
2022-08-25T23:43:41.069Z,22.17
2022-08-25T23:46:08.445Z,26.13
2022-08-25T23:48:35.810Z,25.38
2022-08-25T23:51:03.502Z,21.67
2022-08-25T23:53:31.187Z,22.27
2022-08-25T23:55:59.178Z,20.52
2022-08-25T23:58:28.059Z,21.27
